createdAt,value
2018-09-04T00:02:03.962Z,22.80
2018-09-04T00:04:32.403Z,22.80
2018-09-04T00:07:00.825Z,22.80
2018-09-04T00:09:29.232Z,22.70
2018-09-04T00:11:57.648Z,22.70
2018-09-04T00:14:26.115Z,22.70
2018-09-04T00:16:54.519Z,22.70
2018-09-04T00:19:22.931Z,22.70
2018-09-04T00:21:51.341Z,22.80
2018-09-04T00:24:19.750Z,22.70
2018-09-04T00:26:48.171Z,22.70
2018-09-04T00:29:16.591Z,22.70
2018-09-04T00:31:45.153Z,22.70
2018-09-04T00:34:13.578Z,22.70
2018-09-04T00:36:41.977Z,22.70
2018-09-04T00:39:10.404Z,22.70
2018-09-04T00:41:38.806Z,22.70
2018-09-04T00:44:07.226Z,22.70
2018-09-04T00:46:35.635Z,22.70
2018-09-04T00:49:04.038Z,22.70
2018-09-04T00:51:32.746Z,22.70
2018-09-04T00:54:01.145Z,22.70
2018-09-04T00:56:29.552Z,22.70
2018-09-04T00:58:57.982Z,22.70
2018-09-04T01:01:31.422Z,22.70
2018-09-04T01:03:59.845Z,22.70
2018-09-04T01:06:28.328Z,22.70
2018-09-04T01:08:56.739Z,22.70
2018-09-04T01:11:25.135Z,22.70
2018-09-04T01:13:53.545Z,22.70
2018-09-04T01:16:21.998Z,22.70
2018-09-04T01:18:50.457Z,22.70
2018-09-04T01:21:18.887Z,22.70
2018-09-04T01:23:47.284Z,22.70
2018-09-04T01:26:15.693Z,22.60
2018-09-04T01:28:44.102Z,22.70
2018-09-04T01:31:12.527Z,22.70
2018-09-04T01:33:40.923Z,22.70
2018-09-04T01:36:09.442Z,22.70
2018-09-04T01:38:37.876Z,22.70
2018-09-04T01:41:06.293Z,22.70
2018-09-04T01:43:34.704Z,22.70
2018-09-04T01:46:03.093Z,22.70
2018-09-04T01:48:31.485Z,22.70
2018-09-04T01:50:59.894Z,22.70
2018-09-04T01:53:28.355Z,22.70
2018-09-04T01:55:56.782Z,22.70
2018-09-04T01:58:25.187Z,22.70
2018-09-04T02:00:54.125Z,22.70
2018-09-04T02:03:22.538Z,22.70
2018-09-04T02:05:50.963Z,22.70
2018-09-04T02:08:19.359Z,22.70
2018-09-04T02:10:47.789Z,22.70
2018-09-04T02:13:16.185Z,22.70
2018-09-04T02:15:44.598Z,22.70
2018-09-04T02:18:13.012Z,22.70
2018-09-04T02:20:41.414Z,22.70
2018-09-04T02:23:09.809Z,22.70
2018-09-04T02:25:38.214Z,22.70
2018-09-04T02:28:06.606Z,22.70
2018-09-04T02:30:34.997Z,22.70
2018-09-04T02:33:03.483Z,22.70
2018-09-04T02:35:31.833Z,22.70
2018-09-04T02:38:00.234Z,22.70
2018-09-04T02:40:28.634Z,22.70
2018-09-04T02:42:57.023Z,22.60
2018-09-04T02:45:25.445Z,22.70
2018-09-04T02:47:53.864Z,22.70
2018-09-04T02:50:22.272Z,22.70
2018-09-04T02:52:50.678Z,22.70
2018-09-04T02:55:19.168Z,22.70
2018-09-04T02:57:47.581Z,22.70
2018-09-04T03:00:16.010Z,22.70
2018-09-04T03:02:44.410Z,22.70
2018-09-04T03:05:12.853Z,22.70
2018-09-04T03:07:41.307Z,22.70
2018-09-04T03:10:09.780Z,22.70
2018-09-04T03:12:38.224Z,22.70
2018-09-04T03:15:06.789Z,22.70
2018-09-04T03:17:35.230Z,22.70
2018-09-04T03:20:03.702Z,22.70
2018-09-04T03:22:32.205Z,22.70
2018-09-04T03:25:00.643Z,22.70
2018-09-04T03:27:29.154Z,22.70
2018-09-04T03:29:57.595Z,22.70
2018-09-04T03:32:26.052Z,22.70
2018-09-04T03:34:54.574Z,22.70
2018-09-04T03:37:23.002Z,22.70
2018-09-04T03:39:51.615Z,22.70
2018-09-04T03:42:20.193Z,22.70
2018-09-04T03:44:48.640Z,22.70
2018-09-04T03:47:17.081Z,22.70
2018-09-04T03:49:45.709Z,22.70
2018-09-04T03:52:14.159Z,22.70
2018-09-04T03:54:42.777Z,22.70
2018-09-04T03:57:11.203Z,22.70
2018-09-04T03:59:39.638Z,22.70
2018-09-04T04:02:08.049Z,22.70
2018-09-04T04:04:36.478Z,22.70
2018-09-04T04:07:04.892Z,22.70
2018-09-04T04:09:33.448Z,22.70
2018-09-04T04:12:01.898Z,22.70
2018-09-04T04:14:30.315Z,22.70
2018-09-04T04:16:58.893Z,22.70
2018-09-04T04:19:27.347Z,22.70
2018-09-04T04:21:55.797Z,22.70
2018-09-04T04:24:24.227Z,22.70
2018-09-04T04:26:52.688Z,22.70
2018-09-04T04:29:21.581Z,22.70
2018-09-04T04:31:50.021Z,22.70
2018-09-04T04:34:18.454Z,22.70
2018-09-04T04:36:46.905Z,22.70
2018-09-04T04:39:15.315Z,22.60
2018-09-04T04:41:43.753Z,22.70
2018-09-04T04:44:12.209Z,22.70
2018-09-04T04:46:40.756Z,22.70
2018-09-04T04:49:09.830Z,22.70
2018-09-04T04:51:38.274Z,22.70
2018-09-04T04:54:06.705Z,22.70
2018-09-04T04:56:35.332Z,22.70
2018-09-04T04:59:03.800Z,22.60
2018-09-04T05:01:32.380Z,22.60
2018-09-04T05:04:01.217Z,22.60
2018-09-04T05:06:29.955Z,22.60
2018-09-04T05:08:58.404Z,22.60
2018-09-04T05:11:26.966Z,22.70
2018-09-04T05:13:55.403Z,22.60
2018-09-04T05:16:23.840Z,22.60
2018-09-04T05:18:52.463Z,22.70
2018-09-04T05:21:20.967Z,22.60
2018-09-04T05:23:49.420Z,22.60
2018-09-04T05:26:17.865Z,22.60
2018-09-04T05:28:46.297Z,22.60
2018-09-04T05:31:14.718Z,22.70
2018-09-04T05:33:44.524Z,22.70
2018-09-04T05:36:13.105Z,22.70
2018-09-04T05:38:41.541Z,22.70
2018-09-04T05:41:10.237Z,22.70
2018-09-04T05:44:10.666Z,22.60
2018-09-04T05:46:41.750Z,22.60
2018-09-04T05:49:10.652Z,22.60
2018-09-04T05:51:39.293Z,22.60
2018-09-04T05:54:07.787Z,22.60
2018-09-04T05:56:36.272Z,22.60
2018-09-04T05:59:04.726Z,22.60
2018-09-04T06:01:33.205Z,22.60
2018-09-04T06:04:01.658Z,22.70
2018-09-04T06:06:30.273Z,22.70
2018-09-04T06:08:58.723Z,22.60
2018-09-04T06:11:27.348Z,22.70
2018-09-04T06:13:55.822Z,22.70
2018-09-04T06:16:24.437Z,22.70
2018-09-04T06:18:52.931Z,22.70
2018-09-04T06:21:23.293Z,22.70
2018-09-04T06:23:52.421Z,22.70
2018-09-04T06:26:20.859Z,22.70
2018-09-04T06:28:49.299Z,22.70
2018-09-04T06:31:17.754Z,22.70
2018-09-04T06:33:46.218Z,22.70
2018-09-04T06:36:14.941Z,22.70
2018-09-04T06:38:43.394Z,22.70
2018-09-04T06:41:12.043Z,22.70
2018-09-04T06:43:40.484Z,22.70
2018-09-04T06:46:09.123Z,22.70
2018-09-04T06:48:38.491Z,22.70
2018-09-04T06:51:08.041Z,22.70
2018-09-04T06:53:36.685Z,22.70
2018-09-04T06:56:05.573Z,22.70
2018-09-04T06:58:34.009Z,22.70
2018-09-04T07:01:02.706Z,22.70
2018-09-04T07:03:31.285Z,22.80
2018-09-04T07:05:59.751Z,22.70
2018-09-04T07:08:28.211Z,22.70
2018-09-04T07:10:56.659Z,22.70
2018-09-04T07:13:25.261Z,22.80
2018-09-04T07:15:54.506Z,22.80
2018-09-04T07:18:23.440Z,22.80
2018-09-04T07:20:52.012Z,22.70
2018-09-04T07:23:20.829Z,22.80
2018-09-04T07:25:49.620Z,22.80
2018-09-04T07:28:18.571Z,22.80
2018-09-04T07:30:47.221Z,22.80
2018-09-04T07:33:15.748Z,22.90
2018-09-04T07:35:44.186Z,22.80
2018-09-04T07:38:12.648Z,22.80
2018-09-04T07:40:41.117Z,22.80
2018-09-04T07:43:09.566Z,22.80
2018-09-04T07:45:38.022Z,22.80
2018-09-04T07:48:06.516Z,22.80
2018-09-04T07:50:34.954Z,22.80
2018-09-04T07:53:04.753Z,22.80
2018-09-04T07:55:33.372Z,22.90
2018-09-04T07:58:01.823Z,22.90
2018-09-04T08:00:30.508Z,22.90
2018-09-04T08:02:58.965Z,22.90
2018-09-04T08:05:27.438Z,22.90
2018-09-04T08:07:55.914Z,22.90
2018-09-04T08:10:24.350Z,22.90
2018-09-04T08:12:52.831Z,22.90
2018-09-04T08:15:21.322Z,22.90
2018-09-04T08:17:49.781Z,22.90
2018-09-04T08:20:18.288Z,22.90
2018-09-04T08:22:46.702Z,22.90
2018-09-04T08:25:15.147Z,22.90
2018-09-04T08:27:43.771Z,23.00
2018-09-04T08:30:12.257Z,22.90
2018-09-04T08:32:40.715Z,22.90
2018-09-04T08:35:09.278Z,22.90
2018-09-04T08:37:37.725Z,23.00
2018-09-04T08:40:06.174Z,23.00
2018-09-04T08:42:34.622Z,23.00
2018-09-04T08:45:03.066Z,23.00
2018-09-04T08:47:31.806Z,23.00
2018-09-04T08:50:00.244Z,22.90
2018-09-04T08:52:28.787Z,22.90
2018-09-04T08:54:57.578Z,22.90
2018-09-04T08:57:26.021Z,23.00
2018-09-04T08:59:55.206Z,23.00
2018-09-04T09:02:25.521Z,23.00
2018-09-04T09:04:55.111Z,23.00
2018-09-04T09:07:23.584Z,23.00
2018-09-04T09:09:52.323Z,23.00
2018-09-04T09:12:23.355Z,23.00
2018-09-04T09:14:51.763Z,23.00
2018-09-04T09:17:20.167Z,23.00
2018-09-04T09:19:48.632Z,23.00
2018-09-04T09:22:17.438Z,23.00
2018-09-04T09:24:45.863Z,23.00
2018-09-04T09:27:15.418Z,23.10
2018-09-04T09:29:43.920Z,23.10
2018-09-04T09:32:12.319Z,23.10
2018-09-04T09:34:40.761Z,23.00
2018-09-04T09:37:09.189Z,23.00
2018-09-04T09:39:37.652Z,23.10
2018-09-04T09:42:06.101Z,23.10
2018-09-04T09:44:48.523Z,23.10
2018-09-04T09:47:18.083Z,23.10
2018-09-04T09:49:46.677Z,23.10
2018-09-04T09:52:15.325Z,23.10
2018-09-04T09:54:44.042Z,23.10
2018-09-04T09:57:12.679Z,23.10
2018-09-04T09:59:41.642Z,23.20
2018-09-04T10:02:15.423Z,23.20
2018-09-04T10:04:43.813Z,23.20
2018-09-04T10:07:12.342Z,23.20
2018-09-04T10:09:40.751Z,23.20
2018-09-04T10:12:09.193Z,23.20
2018-09-04T10:14:37.610Z,23.30
2018-09-04T10:17:06.435Z,23.30
2018-09-04T10:19:34.868Z,23.30
2018-09-04T10:22:03.267Z,23.30
2018-09-04T10:24:31.849Z,23.40
2018-09-04T10:27:00.274Z,23.40
2018-09-04T10:29:28.781Z,23.50
2018-09-04T10:31:57.262Z,23.40
2018-09-04T10:34:25.659Z,23.40
2018-09-04T10:36:54.103Z,23.50
2018-09-04T10:39:27.777Z,23.50
2018-09-04T10:41:56.204Z,23.60
2018-09-04T10:44:24.832Z,23.80
2018-09-04T10:46:53.182Z,23.90
2018-09-04T10:49:21.613Z,23.90
2018-09-04T10:51:50.009Z,24.00
2018-09-04T10:54:18.482Z,24.10
2018-09-04T10:56:46.906Z,24.20
2018-09-04T10:59:15.372Z,24.20
2018-09-04T11:01:43.765Z,24.20
2018-09-04T11:04:12.194Z,24.20
2018-09-04T11:06:40.582Z,24.30
2018-09-04T11:09:10.567Z,24.30
2018-09-04T11:11:39.893Z,24.30
2018-09-04T11:14:08.407Z,24.40
2018-09-04T11:16:36.818Z,24.40
2018-09-04T11:19:05.219Z,24.40
2018-09-04T11:21:33.631Z,24.40
2018-09-04T11:24:02.064Z,24.40
2018-09-04T11:26:30.888Z,24.50
2018-09-04T11:29:02.091Z,24.50
2018-09-04T11:31:30.538Z,24.50
2018-09-04T11:33:59.248Z,24.50
2018-09-04T11:36:27.648Z,24.50
2018-09-04T11:38:56.101Z,24.50
2018-09-04T11:41:24.721Z,24.50
2018-09-04T11:43:53.216Z,24.50
2018-09-04T11:46:21.777Z,24.50
2018-09-04T11:48:50.256Z,24.50
2018-09-04T11:51:18.704Z,24.60
2018-09-04T11:53:47.325Z,24.60
2018-09-04T11:56:19.387Z,24.50
2018-09-04T11:58:48.056Z,24.60
2018-09-04T12:01:18.171Z,24.60
2018-09-04T12:03:46.729Z,24.60
2018-09-04T12:06:15.225Z,24.70
2018-09-04T12:08:43.714Z,24.60
2018-09-04T12:11:12.121Z,24.70
2018-09-04T12:13:40.685Z,24.70
2018-09-04T12:16:09.095Z,24.70
2018-09-04T12:18:37.520Z,24.70
2018-09-04T12:21:08.500Z,24.70
2018-09-04T12:23:37.283Z,24.70
2018-09-04T12:26:07.194Z,24.70
2018-09-04T12:28:35.702Z,24.80
2018-09-04T12:31:04.374Z,24.80
2018-09-04T12:33:32.806Z,24.80
2018-09-04T12:36:01.317Z,24.80
2018-09-04T12:38:31.497Z,24.80
2018-09-04T12:41:04.206Z,24.80
2018-09-04T12:43:32.686Z,24.80
2018-09-04T12:46:01.115Z,24.80
2018-09-04T12:48:30.513Z,24.80
2018-09-04T12:51:01.138Z,24.80
2018-09-04T12:53:30.594Z,24.80
2018-09-04T12:55:59.045Z,24.80
2018-09-04T12:58:27.451Z,24.80
2018-09-04T13:00:56.886Z,24.80
2018-09-04T13:03:26.398Z,24.80
2018-09-04T13:05:55.815Z,24.80
2018-09-04T13:08:25.842Z,24.80
2018-09-04T13:10:54.284Z,24.80
2018-09-04T13:13:22.789Z,24.80
2018-09-04T13:15:53.255Z,24.80
2018-09-04T13:18:23.051Z,24.80
2018-09-04T13:20:51.617Z,24.80
2018-09-04T13:23:20.090Z,24.80
2018-09-04T13:25:48.868Z,24.80
2018-09-04T13:28:17.420Z,24.90
2018-09-04T13:30:46.126Z,24.80
2018-09-04T13:33:14.608Z,24.90
2018-09-04T13:35:43.020Z,24.90
2018-09-04T13:38:11.562Z,24.90
2018-09-04T13:40:40.198Z,24.90
2018-09-04T13:43:08.782Z,24.90
2018-09-04T13:45:38.337Z,24.90
2018-09-04T13:48:07.041Z,24.90
2018-09-04T13:50:36.293Z,24.90
2018-09-04T13:53:05.080Z,24.90
2018-09-04T13:55:33.475Z,24.90
2018-09-04T13:58:02.151Z,24.90
2018-09-04T14:00:30.584Z,24.90
2018-09-04T14:02:58.997Z,24.90
2018-09-04T14:05:27.433Z,24.90
2018-09-04T14:07:55.857Z,24.90
2018-09-04T14:10:24.272Z,24.90
2018-09-04T14:12:53.227Z,24.90
2018-09-04T14:15:21.657Z,24.90
2018-09-04T14:17:50.086Z,24.90
2018-09-04T14:20:18.550Z,24.90
2018-09-04T14:22:46.958Z,24.90
2018-09-04T14:25:15.496Z,24.90
2018-09-04T14:27:43.939Z,24.90
2018-09-04T14:30:16.043Z,24.90
2018-09-04T14:32:40.798Z,24.90
2018-09-04T14:35:09.563Z,24.80
2018-09-04T14:37:37.971Z,24.80
2018-09-04T14:40:06.463Z,24.80
2018-09-04T14:42:34.868Z,24.70
2018-09-04T14:45:03.397Z,24.70
2018-09-04T14:47:31.837Z,24.50
2018-09-04T14:50:00.249Z,24.50
2018-09-04T14:52:28.724Z,24.40
2018-09-04T14:54:57.124Z,24.30
2018-09-04T14:57:25.721Z,24.30
2018-09-04T14:59:54.197Z,24.20
2018-09-04T15:02:22.642Z,24.20
2018-09-04T15:04:51.302Z,24.20
2018-09-04T15:07:19.817Z,24.10
2018-09-04T15:09:48.249Z,24.10
2018-09-04T15:12:16.826Z,24.10
2018-09-04T15:14:45.285Z,24.00
2018-09-04T15:17:13.930Z,24.00
2018-09-04T15:19:42.335Z,24.00
2018-09-04T15:22:10.981Z,24.00
2018-09-04T15:24:39.650Z,23.90
2018-09-04T15:27:08.092Z,23.90
2018-09-04T15:29:36.616Z,23.90
2018-09-04T15:32:05.342Z,23.90
2018-09-04T15:34:33.865Z,23.90
2018-09-04T15:37:02.390Z,23.90
2018-09-04T15:39:30.760Z,23.80
2018-09-04T15:41:59.166Z,23.80
2018-09-04T15:44:27.843Z,23.80
2018-09-04T15:46:56.253Z,23.80
2018-09-04T15:49:30.112Z,23.80
2018-09-04T15:51:58.510Z,23.80
2018-09-04T15:54:26.958Z,23.70
2018-09-04T15:56:55.405Z,23.70
2018-09-04T15:59:23.950Z,23.70
2018-09-04T16:01:52.451Z,23.70
2018-09-04T16:04:21.014Z,23.70
2018-09-04T16:06:49.445Z,23.70
2018-09-04T16:09:18.474Z,23.70
2018-09-04T16:11:47.427Z,23.60
2018-09-04T16:14:15.921Z,23.70
2018-09-04T16:16:44.346Z,23.70
2018-09-04T16:19:12.770Z,23.70
2018-09-04T16:21:41.403Z,23.60
2018-09-04T16:24:09.950Z,23.60
2018-09-04T16:26:38.383Z,23.60
2018-09-04T16:29:06.844Z,23.60
2018-09-04T16:31:35.403Z,23.60
2018-09-04T16:34:04.540Z,23.60
2018-09-04T16:36:33.093Z,23.60
2018-09-04T16:39:01.780Z,23.60
2018-09-04T16:41:30.345Z,23.50
2018-09-04T16:43:58.750Z,23.60
2018-09-04T16:46:27.621Z,23.50
2018-09-04T16:48:56.174Z,23.60
2018-09-04T16:51:24.596Z,23.50
2018-09-04T16:53:53.055Z,23.50
2018-09-04T16:56:21.893Z,23.50
2018-09-04T16:58:50.527Z,23.50
2018-09-04T17:01:19.119Z,23.50
2018-09-04T17:03:47.577Z,23.50
2018-09-04T17:06:15.989Z,23.50
2018-09-04T17:08:45.896Z,23.50
2018-09-04T17:16:15.618Z,23.30
2018-09-04T17:30:47.323Z,22.40
2018-09-04T17:34:37.952Z,22.70
2018-09-04T17:37:37.963Z,22.90
2018-09-04T17:44:32.039Z,23.10
2018-09-04T17:47:38.741Z,23.00
2018-09-04T17:53:52.645Z,23.10
2018-09-04T17:56:49.596Z,23.10
2018-09-04T18:03:01.620Z,23.20
2018-09-04T18:09:16.639Z,23.20
2018-09-04T18:13:03.274Z,23.20
2018-09-04T18:16:33.329Z,23.10
2018-09-04T18:31:01.944Z,23.10
2018-09-04T18:34:16.623Z,23.20
2018-09-04T18:40:55.510Z,23.20
2018-09-04T18:57:25.915Z,23.30
2018-09-04T19:00:38.306Z,23.20
2018-09-04T19:09:17.256Z,23.20
2018-09-04T19:11:45.933Z,23.30
2018-09-04T19:14:14.419Z,23.20
2018-09-04T19:16:42.912Z,23.20
2018-09-04T19:19:11.321Z,23.20
2018-09-04T19:21:39.774Z,23.20
2018-09-04T19:24:08.328Z,23.20
2018-09-04T19:26:36.897Z,23.20
2018-09-04T19:29:05.439Z,23.20
2018-09-04T19:31:33.852Z,23.20
2018-09-04T19:34:02.330Z,23.20
2018-09-04T19:36:30.751Z,23.20
2018-09-04T19:38:59.168Z,23.20
2018-09-04T19:41:27.596Z,23.20
2018-09-04T19:43:55.993Z,23.20
2018-09-04T19:46:24.398Z,23.20
2018-09-04T19:48:52.817Z,23.20
2018-09-04T19:51:21.224Z,23.20
2018-09-04T19:53:49.797Z,23.20
2018-09-04T19:56:18.541Z,23.20
2018-09-04T19:58:47.122Z,23.30
2018-09-04T20:01:15.753Z,23.20
2018-09-04T20:03:44.456Z,23.20
2018-09-04T20:06:13.242Z,23.20
2018-09-04T20:08:41.867Z,23.20
2018-09-04T20:11:10.282Z,23.20
2018-09-04T20:13:38.709Z,23.20
2018-09-04T20:16:07.283Z,23.20
2018-09-04T20:18:35.801Z,23.20
2018-09-04T20:21:04.193Z,23.20
2018-09-04T20:23:33.090Z,23.20
2018-09-04T20:26:01.558Z,23.10
2018-09-04T20:28:29.957Z,23.10
2018-09-04T20:30:58.357Z,23.10
2018-09-04T20:33:26.774Z,23.10
2018-09-04T20:35:55.218Z,23.10
2018-09-04T20:38:23.625Z,23.10
2018-09-04T20:40:52.084Z,23.10
2018-09-04T20:43:20.481Z,23.10
2018-09-04T20:45:48.878Z,23.10
2018-09-04T20:48:17.302Z,23.10
2018-09-04T20:50:45.705Z,23.10
2018-09-04T20:53:14.103Z,23.20
2018-09-04T20:55:47.854Z,23.10
2018-09-04T20:58:27.507Z,23.10
2018-09-04T21:01:07.070Z,23.10
2018-09-04T21:03:46.769Z,23.10
2018-09-04T21:06:26.372Z,23.10
2018-09-04T21:09:02.516Z,23.10
2018-09-04T21:11:31.449Z,23.10
2018-09-04T21:13:59.847Z,23.10
2018-09-04T21:16:28.251Z,23.10
2018-09-04T21:18:56.651Z,23.10
2018-09-04T21:21:25.042Z,23.10
2018-09-04T21:23:53.453Z,23.10
2018-09-04T21:26:21.841Z,23.10
2018-09-04T21:28:50.261Z,23.10
2018-09-04T21:31:18.662Z,23.10
2018-09-04T21:33:47.177Z,23.10
2018-09-04T21:36:15.573Z,23.10
2018-09-04T21:38:43.990Z,23.10
2018-09-04T21:41:12.387Z,23.10
2018-09-04T21:43:40.789Z,23.00
2018-09-04T21:46:09.294Z,23.10
2018-09-04T21:48:37.863Z,23.10
2018-09-04T21:51:06.486Z,23.10
2018-09-04T21:53:34.912Z,23.00
2018-09-04T21:56:03.320Z,23.00
2018-09-04T21:58:31.705Z,23.00
2018-09-04T22:01:00.115Z,23.10
2018-09-04T22:03:28.510Z,23.00
2018-09-04T22:05:56.963Z,23.10
2018-09-04T22:08:25.376Z,23.00
2018-09-04T22:10:53.798Z,23.00
2018-09-04T22:13:22.215Z,23.00
2018-09-04T22:15:51.006Z,23.00
2018-09-04T22:18:19.405Z,23.00
2018-09-04T22:20:47.802Z,23.00
2018-09-04T22:23:16.205Z,23.00
2018-09-04T22:25:44.586Z,23.00
2018-09-04T22:28:13.017Z,23.00
2018-09-04T22:30:41.427Z,23.00
2018-09-04T22:33:09.822Z,23.00
2018-09-04T22:35:38.210Z,23.00
2018-09-04T22:38:06.625Z,23.00
2018-09-04T22:40:35.018Z,23.00
2018-09-04T22:43:03.409Z,23.00
2018-09-04T22:45:31.813Z,23.00
2018-09-04T22:48:00.361Z,23.00
2018-09-04T22:50:33.973Z,23.00
2018-09-04T22:53:02.371Z,23.00
2018-09-04T22:55:30.782Z,23.00
2018-09-04T22:57:59.185Z,23.00
2018-09-04T23:00:27.575Z,23.00
2018-09-04T23:02:55.966Z,23.00
2018-09-04T23:05:24.493Z,23.00
2018-09-04T23:07:52.886Z,23.00
2018-09-04T23:10:21.378Z,23.00
2018-09-04T23:12:49.769Z,23.00
2018-09-04T23:15:18.179Z,23.00
2018-09-04T23:17:46.584Z,23.00
2018-09-04T23:20:14.974Z,23.00
2018-09-04T23:22:43.371Z,23.00
2018-09-04T23:25:11.754Z,23.00
2018-09-04T23:27:40.166Z,23.00
2018-09-04T23:30:08.562Z,23.00
2018-09-04T23:32:36.990Z,23.00
2018-09-04T23:35:05.385Z,23.00
2018-09-04T23:37:33.872Z,23.00
2018-09-04T23:40:02.276Z,23.00
2018-09-04T23:42:32.249Z,23.00
2018-09-04T23:45:01.561Z,22.90
2018-09-04T23:47:29.997Z,23.00
2018-09-04T23:49:58.448Z,22.90
2018-09-04T23:52:26.873Z,22.90
2018-09-04T23:54:55.305Z,22.90
2018-09-04T23:57:23.721Z,23.00
2018-09-04T23:59:52.141Z,23.00
